createdAt,value
2022-12-01T00:02:38.314Z,2.18
2022-12-01T00:06:39.337Z,1.97
2022-12-01T00:10:41.082Z,2.06
2022-12-01T00:14:40.551Z,2.14
2022-12-01T00:18:40.366Z,2.14
2022-12-01T00:22:40.019Z,2.19
2022-12-01T00:26:41.665Z,2.13
2022-12-01T00:30:41.155Z,2.27
2022-12-01T00:34:40.587Z,2.28
2022-12-01T00:38:40.097Z,2.23
2022-12-01T00:42:41.676Z,2.30
2022-12-01T00:46:43.736Z,2.19
2022-12-01T00:50:43.527Z,1.70
2022-12-01T00:54:43.634Z,1.90
2022-12-01T00:58:45.225Z,2.01
2022-12-01T01:02:45.115Z,1.97
2022-12-01T01:06:44.528Z,1.97
2022-12-01T01:10:45.494Z,2.00
2022-12-01T01:14:47.611Z,1.91
2022-12-01T01:18:47.226Z,1.94
2022-12-01T01:22:46.379Z,1.95
2022-12-01T01:26:45.847Z,2.03
2022-12-01T01:30:47.613Z,2.00
2022-12-01T01:34:47.636Z,2.04
2022-12-01T01:38:47.902Z,1.92
2022-12-01T01:42:46.839Z,1.87
2022-12-01T01:46:48.497Z,1.96
2022-12-01T01:50:48.050Z,1.98
2022-12-01T01:54:51.682Z,1.87
2022-12-01T01:58:52.435Z,1.82
2022-12-01T02:02:55.717Z,1.77
2022-12-01T02:06:56.168Z,1.65
2022-12-01T02:11:24.584Z,1.71
2022-12-01T02:15:32.786Z,1.68
2022-12-01T02:19:53.951Z,1.64
2022-12-01T02:24:23.219Z,1.54
2022-12-01T02:28:50.122Z,1.55
2022-12-01T02:33:04.253Z,1.52
2022-12-01T02:37:12.179Z,1.58
2022-12-01T02:41:19.710Z,1.37
2022-12-01T02:45:24.929Z,1.41
2022-12-01T02:49:32.403Z,1.41
2022-12-01T02:53:32.125Z,1.37
2022-12-01T02:57:32.396Z,1.45
2022-12-01T03:02:02.436Z,1.34
2022-12-01T03:06:13.470Z,1.49
2022-12-01T03:10:21.683Z,1.56
2022-12-01T03:14:31.629Z,1.37
2022-12-01T03:18:38.128Z,1.67
2022-12-01T03:22:46.379Z,1.72
2022-12-01T03:26:51.433Z,1.50
2022-12-01T03:30:55.154Z,1.69
2022-12-01T03:34:58.393Z,1.39
2022-12-01T03:39:02.488Z,1.57
2022-12-01T03:43:07.010Z,1.57
2022-12-01T03:47:10.386Z,1.60
2022-12-01T03:51:17.678Z,1.58
2022-12-01T03:55:23.847Z,1.54
2022-12-01T03:59:25.922Z,1.44
2022-12-01T04:03:27.773Z,1.73
2022-12-01T04:07:27.566Z,1.81
2022-12-01T04:11:46.936Z,1.69
2022-12-01T04:15:47.015Z,1.61
2022-12-01T04:19:46.891Z,1.57
2022-12-01T04:24:04.929Z,1.61
2022-12-01T04:28:06.952Z,1.60
2022-12-01T04:32:06.328Z,1.58
2022-12-01T04:36:06.306Z,1.39
2022-12-01T04:40:06.515Z,1.71
2022-12-01T04:44:08.113Z,1.64
2022-12-01T04:48:07.452Z,1.59
2022-12-01T04:52:09.927Z,1.78
2022-12-01T04:56:09.818Z,1.62
2022-12-01T05:00:13.023Z,1.56
2022-12-01T05:04:14.249Z,1.29
2022-12-01T05:08:14.148Z,1.32
2022-12-01T05:12:14.005Z,1.36
2022-12-01T05:16:17.625Z,1.26
2022-12-01T05:20:38.033Z,1.20
2022-12-01T05:24:37.697Z,1.21
2022-12-01T05:28:38.377Z,1.13
2022-12-01T05:32:40.304Z,1.08
2022-12-01T05:36:40.215Z,1.07
2022-12-01T05:40:40.447Z,1.07
2022-12-01T05:44:40.211Z,0.87
2022-12-01T05:48:41.821Z,0.97
2022-12-01T05:52:41.627Z,1.00
2022-12-01T05:56:41.328Z,0.87
2022-12-01T06:00:45.669Z,0.84
2022-12-01T06:04:48.293Z,0.78
2022-12-01T06:08:48.287Z,0.66
2022-12-01T06:12:47.623Z,0.57
2022-12-01T06:16:47.470Z,0.68
2022-12-01T06:20:49.569Z,0.68
2022-12-01T06:24:49.322Z,0.59
2022-12-01T06:28:49.183Z,0.68
2022-12-01T06:32:48.841Z,0.72
2022-12-01T06:36:50.319Z,0.71
2022-12-01T06:40:50.457Z,0.76
2022-12-01T06:44:50.199Z,0.75
2022-12-01T06:48:50.550Z,0.74
2022-12-01T06:52:53.581Z,0.72
2022-12-01T06:56:56.157Z,0.81
2022-12-01T07:00:57.010Z,0.72
2022-12-01T07:04:56.642Z,0.67
2022-12-01T07:08:59.410Z,0.43
2022-12-01T07:12:59.393Z,0.60
2022-12-01T07:16:59.324Z,0.19
2022-12-01T07:21:02.873Z,0.50
2022-12-01T07:25:04.812Z,0.43
2022-12-01T07:29:04.648Z,0.51
2022-12-01T07:33:04.337Z,0.55
2022-12-01T07:37:03.608Z,0.52
2022-12-01T07:41:10.758Z,0.56
2022-12-01T07:45:11.148Z,0.52
2022-12-01T07:49:14.648Z,0.53
2022-12-01T07:53:14.309Z,0.61
2022-12-01T07:57:17.805Z,0.61
2022-12-01T08:01:19.378Z,0.63
2022-12-01T08:05:19.425Z,0.69
2022-12-01T08:09:19.234Z,0.74
2022-12-01T08:13:21.874Z,0.67
2022-12-01T08:17:21.803Z,0.63
2022-12-01T08:21:22.878Z,0.56
2022-12-01T08:25:22.377Z,0.51
2022-12-01T08:29:24.137Z,0.51
2022-12-01T08:33:24.079Z,0.44
2022-12-01T08:37:23.627Z,0.56
2022-12-01T08:41:24.338Z,0.62
2022-12-01T08:45:26.447Z,0.80
2022-12-01T08:49:26.224Z,0.89
2022-12-01T08:53:26.122Z,0.97
2022-12-01T08:57:25.810Z,0.87
2022-12-01T09:01:27.957Z,0.84
2022-12-01T09:05:27.756Z,0.89
2022-12-01T09:09:29.540Z,0.91
2022-12-01T09:13:30.016Z,0.73
2022-12-01T09:17:31.402Z,0.76
2022-12-01T09:21:32.756Z,0.81
2022-12-01T09:25:32.541Z,0.76
2022-12-01T09:29:33.183Z,0.79
2022-12-01T09:33:35.446Z,0.82
2022-12-01T09:37:35.188Z,0.79
2022-12-01T09:41:39.320Z,0.81
2022-12-01T09:45:45.387Z,0.91
2022-12-01T09:49:55.348Z,0.92
2022-12-01T09:54:00.088Z,0.83
2022-12-01T09:58:02.063Z,0.81
2022-12-01T10:02:04.828Z,0.84
2022-12-01T10:06:30.231Z,0.87
2022-12-01T10:10:32.437Z,0.86
2022-12-01T10:14:36.055Z,0.82
2022-12-01T10:18:48.594Z,0.91
2022-12-01T10:23:19.003Z,0.84
2022-12-01T10:27:28.558Z,0.87
2022-12-01T10:31:34.136Z,0.89
2022-12-01T10:35:37.288Z,0.89
2022-12-01T10:39:42.009Z,0.78
2022-12-01T10:43:46.103Z,0.76
2022-12-01T10:48:12.946Z,0.70
2022-12-01T10:52:34.881Z,0.87
2022-12-01T10:56:43.779Z,0.87
2022-12-01T11:00:59.707Z,0.91
2022-12-01T11:05:03.440Z,0.87
2022-12-01T11:09:05.851Z,0.84
2022-12-01T11:13:27.992Z,0.92
2022-12-01T11:17:31.569Z,1.02
2022-12-01T11:21:31.836Z,0.96
2022-12-01T11:25:32.077Z,0.96
2022-12-01T11:29:39.836Z,0.96
2022-12-01T11:33:49.047Z,0.82
2022-12-01T11:38:21.128Z,0.89
2022-12-01T11:42:27.788Z,0.88
2022-12-01T11:46:36.984Z,0.92
2022-12-01T11:50:39.197Z,0.98
2022-12-01T11:54:39.047Z,0.98
2022-12-01T11:58:38.344Z,0.94
2022-12-01T12:02:51.123Z,0.90
2022-12-01T12:07:00.471Z,0.90
2022-12-01T12:11:12.729Z,0.89
2022-12-01T12:15:27.000Z,0.94
2022-12-01T12:24:40.401Z,1.09
2022-12-01T12:28:59.234Z,1.16
2022-12-01T12:33:31.218Z,1.00
2022-12-01T12:37:45.895Z,0.88
2022-12-01T12:41:49.610Z,1.08
2022-12-01T12:45:59.957Z,1.07
2022-12-01T12:50:08.312Z,1.04
2022-12-01T12:54:21.158Z,1.10
2022-12-01T12:58:27.538Z,1.07
2022-12-01T13:02:33.767Z,1.08
2022-12-01T13:06:39.368Z,1.11
2022-12-01T13:10:48.849Z,1.14
2022-12-01T13:14:57.780Z,1.12
2022-12-01T13:19:06.119Z,0.94
2022-12-01T13:23:07.449Z,1.18
2022-12-01T13:27:18.136Z,1.24
2022-12-01T13:31:19.409Z,1.34
2022-12-01T13:35:28.349Z,1.08
2022-12-01T13:39:35.147Z,1.28
2022-12-01T13:43:40.813Z,1.17
2022-12-01T13:47:50.449Z,1.24
2022-12-01T13:52:34.988Z,1.20
2022-12-01T13:56:41.272Z,1.20
2022-12-01T14:00:43.162Z,1.16
2022-12-01T14:04:42.812Z,1.07
2022-12-01T14:08:50.175Z,1.10
2022-12-01T14:12:51.032Z,1.15
2022-12-01T14:16:55.365Z,1.19
2022-12-01T14:20:55.117Z,1.03
2022-12-01T14:24:55.034Z,0.77
2022-12-01T14:29:29.075Z,1.02
2022-12-01T14:33:56.522Z,1.07
2022-12-01T14:37:56.212Z,1.11
2022-12-01T14:42:00.516Z,1.13
2022-12-01T14:46:08.949Z,1.20
2022-12-01T14:50:19.128Z,1.12
2022-12-01T14:54:24.250Z,1.17
2022-12-01T14:58:27.315Z,1.22
2022-12-01T15:02:27.160Z,1.19
2022-12-01T15:06:31.906Z,1.23
2022-12-01T15:10:34.938Z,1.10
2022-12-01T15:14:36.953Z,1.16
2022-12-01T15:18:38.676Z,1.18
2022-12-01T15:22:43.228Z,1.11
2022-12-01T15:26:50.835Z,1.11
2022-12-01T15:30:54.774Z,1.14
2022-12-01T15:35:01.403Z,1.04
2022-12-01T15:39:07.017Z,1.02
2022-12-01T15:43:15.130Z,0.94
2022-12-01T15:47:35.803Z,0.93
2022-12-01T15:51:35.687Z,1.14
2022-12-01T15:55:40.395Z,0.99
2022-12-01T15:59:42.182Z,0.89
2022-12-01T16:03:55.804Z,1.04
2022-12-01T16:12:26.005Z,0.98
2022-12-01T16:16:46.480Z,1.15
2022-12-01T16:20:46.378Z,1.02
2022-12-01T16:24:50.538Z,1.11
2022-12-01T16:28:52.493Z,1.07
2022-12-01T16:32:51.994Z,0.83
2022-12-01T16:36:54.921Z,0.93
2022-12-01T16:40:56.507Z,1.12
2022-12-01T16:44:58.240Z,1.01
2022-12-01T16:48:57.789Z,1.04
2022-12-01T16:52:57.300Z,1.19
2022-12-01T16:56:57.096Z,1.00
2022-12-01T17:00:59.491Z,0.90
2022-12-01T17:04:58.700Z,0.96
2022-12-01T17:08:58.306Z,0.88
2022-12-01T17:12:57.549Z,0.72
2022-12-01T17:16:58.836Z,0.89
2022-12-01T17:21:00.108Z,0.89
2022-12-01T17:25:01.984Z,1.01
2022-12-01T17:29:02.055Z,0.92
2022-12-01T17:33:03.624Z,0.89
2022-12-01T17:37:03.044Z,0.97
2022-12-01T17:41:07.479Z,0.95
2022-12-01T17:45:08.349Z,0.99
2022-12-01T17:49:11.716Z,0.97
2022-12-01T17:53:11.679Z,1.03
2022-12-01T17:57:14.854Z,1.02
2022-12-01T18:01:17.087Z,1.05
2022-12-01T18:05:19.907Z,0.86
2022-12-01T18:09:20.159Z,1.05
2022-12-01T18:13:21.460Z,1.00
2022-12-01T18:17:21.570Z,1.00
2022-12-01T18:21:24.976Z,0.94
2022-12-01T18:25:24.432Z,0.98
2022-12-01T18:29:26.121Z,1.01
2022-12-01T18:33:26.431Z,1.09
2022-12-01T18:37:28.735Z,0.99
2022-12-01T18:41:28.773Z,1.02
2022-12-01T18:45:28.498Z,0.98
2022-12-01T18:49:28.592Z,1.01
2022-12-01T18:53:30.667Z,1.09
2022-12-01T18:57:30.799Z,1.03
2022-12-01T19:01:33.637Z,0.93
2022-12-01T19:05:33.432Z,0.96
2022-12-01T19:09:35.109Z,1.04
2022-12-01T19:13:35.620Z,1.07
2022-12-01T19:17:35.433Z,1.11
2022-12-01T19:21:35.205Z,1.02
2022-12-01T19:25:38.474Z,0.95
2022-12-01T19:29:38.236Z,1.02
2022-12-01T19:33:38.173Z,0.93
2022-12-01T19:37:37.910Z,0.84
2022-12-01T19:41:39.869Z,0.91
2022-12-01T19:45:40.145Z,0.63
2022-12-01T19:49:40.915Z,0.64
2022-12-01T19:53:40.277Z,0.87
2022-12-01T19:57:42.407Z,0.90
2022-12-01T20:01:43.302Z,0.85
2022-12-01T20:05:43.399Z,0.82
2022-12-01T20:09:49.575Z,0.88
2022-12-01T20:13:52.263Z,0.88
2022-12-01T20:17:54.892Z,0.80
2022-12-01T20:21:54.607Z,0.70
2022-12-01T20:25:54.149Z,0.93
2022-12-01T20:29:56.414Z,1.06
2022-12-01T20:33:59.322Z,0.83
2022-12-01T20:37:58.539Z,0.97
2022-12-01T20:41:58.418Z,1.06
2022-12-01T20:46:01.039Z,1.13
2022-12-01T20:50:01.358Z,1.00
2022-12-01T20:54:26.667Z,1.19
2022-12-01T20:58:22.198Z,1.07
2022-12-01T21:02:24.555Z,1.02
2022-12-01T21:06:24.836Z,1.05
2022-12-01T21:10:24.649Z,1.04
2022-12-01T21:14:29.942Z,0.96
2022-12-01T21:18:37.937Z,0.96
2022-12-01T21:22:38.129Z,0.87
2022-12-01T21:26:38.565Z,1.02
2022-12-01T21:30:38.357Z,0.93
2022-12-01T21:34:39.948Z,0.96
2022-12-01T21:38:39.987Z,0.93
2022-12-01T21:42:39.788Z,0.96
2022-12-01T21:46:42.078Z,0.83
2022-12-01T21:50:46.980Z,1.02
2022-12-01T21:54:49.643Z,1.05
2022-12-01T21:59:01.557Z,0.90
2022-12-01T22:03:27.871Z,0.96
2022-12-01T22:07:34.268Z,1.03
2022-12-01T22:11:34.355Z,1.07
2022-12-01T22:15:41.851Z,1.04
2022-12-01T22:19:45.288Z,1.11
2022-12-01T22:23:47.489Z,1.06
2022-12-01T22:27:47.810Z,1.06
2022-12-01T22:31:48.258Z,1.05
2022-12-01T22:35:50.243Z,1.05
2022-12-01T22:39:59.413Z,1.13
2022-12-01T22:44:03.680Z,1.09
2022-12-01T22:48:04.312Z,1.05
2022-12-01T22:52:07.711Z,1.05
2022-12-01T22:56:34.679Z,1.09
2022-12-01T23:00:35.424Z,1.16
2022-12-01T23:04:40.391Z,1.02
2022-12-01T23:08:41.096Z,1.17
2022-12-01T23:12:43.991Z,1.07
2022-12-01T23:16:43.711Z,1.03
2022-12-01T23:20:45.184Z,1.17
2022-12-01T23:24:45.328Z,1.07
2022-12-01T23:28:47.939Z,0.92
2022-12-01T23:32:50.838Z,0.96
2022-12-01T23:36:52.301Z,1.15
2022-12-01T23:40:54.026Z,1.21
2022-12-01T23:44:55.700Z,1.16
2022-12-01T23:48:58.249Z,1.22
2022-12-01T23:52:58.519Z,1.22
2022-12-01T23:57:01.284Z,1.13
